createdAt,value
2022-12-19T00:00:21.759Z,13.98
2022-12-19T00:02:24.621Z,14.68
2022-12-19T00:04:28.786Z,13.93
2022-12-19T00:06:32.110Z,13.65
2022-12-19T00:08:34.770Z,14.68
2022-12-19T00:10:37.432Z,12.27
2022-12-19T00:12:40.154Z,12.05
2022-12-19T00:14:42.868Z,16.05
2022-12-19T00:16:46.024Z,16.83
2022-12-19T00:18:50.572Z,17.38
2022-12-19T00:21:01.255Z,14.77
2022-12-19T00:23:03.942Z,16.92
2022-12-19T00:25:07.393Z,17.02
2022-12-19T00:27:11.109Z,15.30
2022-12-19T00:29:14.517Z,16.50
2022-12-19T00:31:19.288Z,17.27
2022-12-19T00:33:21.990Z,14.60
2022-12-19T00:35:24.926Z,14.13
2022-12-19T00:37:29.025Z,17.00
2022-12-19T00:39:31.774Z,15.10
2022-12-19T00:41:36.596Z,16.40
2022-12-19T00:43:40.126Z,15.43
2022-12-19T00:45:42.895Z,16.25
2022-12-19T00:47:45.635Z,14.75
2022-12-19T00:49:48.361Z,18.90
2022-12-19T00:51:52.423Z,16.00
2022-12-19T00:53:58.429Z,15.45
2022-12-19T00:56:03.689Z,16.15
2022-12-19T00:58:06.373Z,15.98
2022-12-19T01:00:10.826Z,17.67
2022-12-19T01:02:13.670Z,15.10
2022-12-19T01:04:28.163Z,16.63
2022-12-19T01:06:31.561Z,14.73
2022-12-19T01:08:34.715Z,17.65
2022-12-19T01:10:38.742Z,18.27
2022-12-19T01:12:46.238Z,18.58
2022-12-19T01:14:48.129Z,16.95
2022-12-19T01:16:51.351Z,16.15
2022-12-19T01:18:54.061Z,18.65
2022-12-19T01:21:00.252Z,19.38
2022-12-19T01:23:02.966Z,18.55
2022-12-19T01:25:06.612Z,15.02
2022-12-19T01:27:10.674Z,16.90
2022-12-19T01:29:13.547Z,19.05
2022-12-19T01:31:16.236Z,19.38
2022-12-19T01:33:21.898Z,16.48
2022-12-19T01:35:25.503Z,19.38
2022-12-19T01:37:28.261Z,18.60
2022-12-19T01:39:30.972Z,20.92
2022-12-19T01:41:36.330Z,18.35
2022-12-19T01:43:56.664Z,15.70
2022-12-19T01:46:01.901Z,19.88
2022-12-19T01:48:18.422Z,17.40
2022-12-19T01:50:25.208Z,19.63
2022-12-19T01:52:28.036Z,17.58
2022-12-19T01:54:34.190Z,15.27
2022-12-19T01:56:42.226Z,18.15
2022-12-19T01:58:47.046Z,20.52
2022-12-19T02:00:51.270Z,18.65
2022-12-19T02:02:57.991Z,17.52
2022-12-19T02:05:01.566Z,15.75
2022-12-19T02:07:08.678Z,20.20
2022-12-19T02:09:19.253Z,14.48
2022-12-19T02:11:21.922Z,19.05
2022-12-19T02:13:25.313Z,16.55
2022-12-19T02:15:34.109Z,20.27
2022-12-19T02:17:52.494Z,18.60
2022-12-19T02:20:42.864Z,17.95
2022-12-19T02:23:02.183Z,18.42
2022-12-19T02:25:25.985Z,17.70
2022-12-19T02:27:55.984Z,20.05
2022-12-19T02:30:07.130Z,24.05
2022-12-19T02:32:20.088Z,20.50
2022-12-19T02:34:30.673Z,16.23
2022-12-19T02:36:40.295Z,17.30
2022-12-19T02:38:53.910Z,16.13
2022-12-19T02:41:01.870Z,17.35
2022-12-19T02:43:05.800Z,14.43
2022-12-19T02:45:11.331Z,17.65
2022-12-19T02:47:20.460Z,18.30
2022-12-19T02:49:31.029Z,19.08
2022-12-19T02:51:34.232Z,20.65
2022-12-19T02:53:38.275Z,17.27
2022-12-19T02:55:47.912Z,22.00
2022-12-19T02:58:24.004Z,24.42
2022-12-19T03:00:28.660Z,19.13
2022-12-19T03:02:39.288Z,19.45
2022-12-19T03:04:48.764Z,19.13
2022-12-19T03:06:54.862Z,15.23
2022-12-19T03:09:03.744Z,20.48
2022-12-19T03:11:08.993Z,16.70
2022-12-19T03:13:15.461Z,19.40
2022-12-19T03:15:19.863Z,19.70
2022-12-19T03:17:22.609Z,18.92
2022-12-19T03:19:26.829Z,17.25
2022-12-19T03:21:35.627Z,12.65
2022-12-19T03:23:39.202Z,14.95
2022-12-19T03:25:45.485Z,18.40
2022-12-19T03:27:50.676Z,20.17
2022-12-19T03:29:57.856Z,17.55
2022-12-19T03:34:09.894Z,13.57
2022-12-19T03:36:20.578Z,16.92
2022-12-19T03:38:23.956Z,16.83
2022-12-19T03:40:29.268Z,16.60
2022-12-19T03:42:51.757Z,19.83
2022-12-19T03:44:58.626Z,15.50
2022-12-19T03:47:07.923Z,13.10
2022-12-19T03:49:11.200Z,13.48
2022-12-19T03:51:31.237Z,15.75
2022-12-19T03:53:46.823Z,19.75
2022-12-19T03:55:55.677Z,14.73
2022-12-19T03:58:02.131Z,16.00
2022-12-19T04:00:08.606Z,18.35
2022-12-19T04:02:14.228Z,20.17
2022-12-19T04:04:18.181Z,13.15
2022-12-19T04:06:22.674Z,16.13
2022-12-19T04:08:25.847Z,14.73
2022-12-19T04:10:30.049Z,18.80
2022-12-19T04:12:37.668Z,16.85
2022-12-19T04:14:41.331Z,21.48
2022-12-19T04:16:49.289Z,14.82
2022-12-19T04:18:59.181Z,19.05
2022-12-19T04:21:06.623Z,16.60
2022-12-19T04:23:18.773Z,20.15
2022-12-19T04:25:29.568Z,13.07
2022-12-19T04:27:34.894Z,16.13
2022-12-19T04:29:39.598Z,19.02
2022-12-19T04:31:43.067Z,21.65
2022-12-19T04:33:45.689Z,15.50
2022-12-19T04:35:48.570Z,19.08
2022-12-19T04:37:52.304Z,20.92
2022-12-19T04:39:56.308Z,19.38
2022-12-19T04:41:58.972Z,13.02
2022-12-19T04:44:01.699Z,13.13
2022-12-19T04:46:04.571Z,12.82
2022-12-19T04:48:07.618Z,15.10
2022-12-19T04:50:12.091Z,20.63
2022-12-19T04:52:14.759Z,9.90
2022-12-19T04:54:17.456Z,18.00
2022-12-19T04:56:21.537Z,16.98
2022-12-19T04:58:24.315Z,16.33
2022-12-19T05:00:27.145Z,20.13
2022-12-19T05:02:30.003Z,15.80
2022-12-19T05:04:32.781Z,15.38
2022-12-19T05:06:35.542Z,19.83
2022-12-19T05:08:40.479Z,18.98
2022-12-19T05:10:43.111Z,19.52
2022-12-19T05:12:48.121Z,16.02
2022-12-19T05:14:50.779Z,18.52
2022-12-19T05:16:58.856Z,19.33
2022-12-19T05:19:03.226Z,17.83
2022-12-19T05:21:06.522Z,18.42
2022-12-19T05:23:15.308Z,17.13
2022-12-19T05:25:19.659Z,15.13
2022-12-19T05:27:22.589Z,18.15
2022-12-19T05:29:26.702Z,17.55
2022-12-19T05:31:29.457Z,18.67
2022-12-19T05:33:32.245Z,16.52
2022-12-19T05:35:35.263Z,17.08
2022-12-19T05:37:38.021Z,17.77
2022-12-19T05:39:40.714Z,17.10
2022-12-19T05:41:46.366Z,15.27
2022-12-19T05:43:53.819Z,19.42
2022-12-19T05:45:57.879Z,18.42
2022-12-19T05:48:01.648Z,18.75
2022-12-19T05:50:05.681Z,16.80
2022-12-19T05:52:08.484Z,17.83
2022-12-19T05:54:11.431Z,17.23
2022-12-19T05:56:16.381Z,17.75
2022-12-19T05:58:20.459Z,16.55
2022-12-19T06:00:23.380Z,17.17
2022-12-19T06:02:27.593Z,13.68
2022-12-19T06:04:30.689Z,15.90
2022-12-19T06:06:33.389Z,15.57
2022-12-19T06:08:36.120Z,19.40
2022-12-19T06:10:38.765Z,18.13
2022-12-19T06:12:41.681Z,17.67
2022-12-19T06:14:44.540Z,18.55
2022-12-19T06:16:47.356Z,19.40
2022-12-19T06:18:51.670Z,16.63
2022-12-19T06:20:59.278Z,18.98
2022-12-19T06:23:02.171Z,18.15
2022-12-19T06:25:05.561Z,15.48
2022-12-19T06:27:08.298Z,18.20
2022-12-19T06:29:11.144Z,16.88
2022-12-19T06:31:14.224Z,16.35
2022-12-19T06:33:17.089Z,20.75
2022-12-19T06:35:21.065Z,18.42
2022-12-19T06:37:23.802Z,18.38
2022-12-19T06:39:26.414Z,16.13
2022-12-19T06:41:46.739Z,19.27
2022-12-19T06:43:53.354Z,18.65
2022-12-19T06:48:00.959Z,17.33
2022-12-19T06:50:03.656Z,18.92
2022-12-19T06:52:09.293Z,19.48
2022-12-19T06:54:12.272Z,20.15
2022-12-19T06:56:17.059Z,19.05
2022-12-19T06:58:24.106Z,20.08
2022-12-19T07:00:27.398Z,17.25
2022-12-19T07:02:32.602Z,17.27
2022-12-19T07:04:40.450Z,17.17
2022-12-19T07:06:48.735Z,18.50
2022-12-19T07:08:54.071Z,21.13
2022-12-19T07:10:56.802Z,18.63
2022-12-19T07:12:59.553Z,19.30
2022-12-19T07:15:02.393Z,20.75
2022-12-19T07:17:06.268Z,19.60
2022-12-19T07:19:10.145Z,21.83
2022-12-19T07:21:13.731Z,19.30
2022-12-19T07:23:19.825Z,17.85
2022-12-19T07:25:23.989Z,18.38
2022-12-19T07:27:35.188Z,19.98
2022-12-19T07:29:38.664Z,19.00
2022-12-19T07:31:42.486Z,16.88
2022-12-19T07:33:45.145Z,17.25
2022-12-19T07:35:47.793Z,18.52
2022-12-19T07:37:50.962Z,18.05
2022-12-19T07:39:53.879Z,19.98
2022-12-19T07:41:57.868Z,17.20
2022-12-19T07:44:00.579Z,17.95
2022-12-19T07:46:03.252Z,19.08
2022-12-19T07:48:07.916Z,16.02
2022-12-19T07:50:11.768Z,16.95
2022-12-19T07:52:14.543Z,15.18
2022-12-19T07:54:17.249Z,17.20
2022-12-19T07:56:19.931Z,17.10
2022-12-19T07:58:24.539Z,17.17
2022-12-19T08:00:27.295Z,13.95
2022-12-19T08:02:30.131Z,16.65
2022-12-19T08:04:34.586Z,16.50
2022-12-19T08:06:41.095Z,14.88
2022-12-19T08:10:47.199Z,13.05
2022-12-19T08:12:50.183Z,12.23
2022-12-19T08:14:57.092Z,13.95
2022-12-19T08:19:27.245Z,13.85
2022-12-19T08:21:30.536Z,16.50
2022-12-19T08:23:34.379Z,15.45
2022-12-19T08:25:39.730Z,14.75
2022-12-19T08:27:42.984Z,17.00
2022-12-19T08:29:45.628Z,16.88
2022-12-19T08:31:49.740Z,16.65
2022-12-19T08:33:52.763Z,18.02
2022-12-19T08:35:55.913Z,15.15
2022-12-19T08:37:58.762Z,13.73
2022-12-19T08:40:01.495Z,11.95
2022-12-19T08:42:04.506Z,11.68
2022-12-19T08:44:07.316Z,13.82
2022-12-19T08:46:10.514Z,13.90
2022-12-19T08:48:14.667Z,14.32
2022-12-19T08:50:17.709Z,11.80
2022-12-19T08:52:20.419Z,11.95
2022-12-19T08:54:23.159Z,12.27
2022-12-19T08:56:25.840Z,13.77
2022-12-19T08:58:30.450Z,12.60
2022-12-19T09:00:33.122Z,10.98
2022-12-19T09:02:36.026Z,12.82
2022-12-19T09:06:01.464Z,11.60
2022-12-19T09:07:02.888Z,12.20
2022-12-19T09:09:06.863Z,11.80
2022-12-19T09:11:11.660Z,12.18
2022-12-19T09:13:14.268Z,12.05
2022-12-19T09:15:17.112Z,12.68
2022-12-19T09:17:20.809Z,11.40
2022-12-19T09:19:23.654Z,11.80
2022-12-19T09:21:30.127Z,11.40
2022-12-19T09:23:33.171Z,12.60
2022-12-19T09:25:36.736Z,11.90
2022-12-19T09:28:17.593Z,13.02
2022-12-19T09:30:02.211Z,10.75
2022-12-19T09:32:05.161Z,11.88
2022-12-19T09:34:07.827Z,12.90
2022-12-19T09:36:13.845Z,13.95
2022-12-19T09:38:17.938Z,12.48
2022-12-19T09:40:20.585Z,11.43
2022-12-19T09:42:41.850Z,12.63
2022-12-19T09:45:05.597Z,9.90
2022-12-19T09:47:14.401Z,12.05
2022-12-19T09:49:19.833Z,12.32
2022-12-19T09:51:33.887Z,11.52
2022-12-19T09:53:45.676Z,11.00
2022-12-19T09:55:59.269Z,12.80
2022-12-19T09:58:08.095Z,13.00
2022-12-19T10:00:14.587Z,12.70
2022-12-19T10:02:28.419Z,12.88
2022-12-19T10:04:37.194Z,9.93
2022-12-19T10:07:19.832Z,13.32
2022-12-19T10:09:42.711Z,12.10
2022-12-19T10:12:40.856Z,11.15
2022-12-19T10:14:26.207Z,13.32
2022-12-19T10:16:38.006Z,13.23
2022-12-19T10:18:56.398Z,11.98
2022-12-19T10:21:07.534Z,12.10
2022-12-19T10:23:30.394Z,12.43
2022-12-19T10:25:50.668Z,11.40
2022-12-19T10:28:00.462Z,11.57
2022-12-19T10:30:12.822Z,11.95
2022-12-19T10:32:23.315Z,15.65
2022-12-19T10:34:33.703Z,12.82
2022-12-19T10:39:17.692Z,10.15
2022-12-19T10:41:25.034Z,11.82
2022-12-19T10:43:44.800Z,12.85
2022-12-19T10:45:52.508Z,11.57
2022-12-19T10:47:58.516Z,9.90
2022-12-19T10:50:05.641Z,13.48
2022-12-19T10:52:13.450Z,10.80
2022-12-19T10:54:16.214Z,11.30
2022-12-19T10:56:25.493Z,11.80
2022-12-19T10:58:35.822Z,12.60
2022-12-19T11:00:39.173Z,11.73
2022-12-19T11:02:45.172Z,11.35
2022-12-19T11:04:49.010Z,12.13
2022-12-19T11:07:04.883Z,11.27
2022-12-19T11:09:19.773Z,11.00
2022-12-19T11:12:39.107Z,10.77
2022-12-19T11:18:55.406Z,8.65
2022-12-19T11:23:51.286Z,10.27
2022-12-19T11:27:48.677Z,10.93
2022-12-19T11:29:34.133Z,11.65
2022-12-19T11:30:06.373Z,10.73
2022-12-19T11:30:39.359Z,11.07
2022-12-19T11:30:48.854Z,10.93
2022-12-19T11:31:51.068Z,10.48
2022-12-19T11:33:20.541Z,10.55
2022-12-19T11:35:37.085Z,9.77
2022-12-19T11:37:45.488Z,11.27
2022-12-19T11:39:51.229Z,11.88
2022-12-19T11:42:01.673Z,11.70
2022-12-19T11:44:12.121Z,11.20
2022-12-19T11:46:27.292Z,12.30
2022-12-19T11:48:38.508Z,13.00
2022-12-19T11:51:00.104Z,13.68
2022-12-19T11:53:16.830Z,12.23
2022-12-19T11:55:24.963Z,10.38
2022-12-19T11:57:28.592Z,10.32
2022-12-19T11:59:36.541Z,10.13
2022-12-19T12:02:32.938Z,11.68
2022-12-19T12:04:54.411Z,10.57
2022-12-19T12:06:58.292Z,11.38
2022-12-19T12:13:30.546Z,11.60
2022-12-19T12:17:28.072Z,11.77
2022-12-19T12:23:20.793Z,11.77
2022-12-19T12:25:57.183Z,10.43
2022-12-19T12:31:00.295Z,11.32
2022-12-19T12:31:27.954Z,11.48
2022-12-19T12:31:48.868Z,10.30
2022-12-19T12:31:52.228Z,11.85
2022-12-19T12:31:58.469Z,13.05
2022-12-19T12:35:38.454Z,12.13
2022-12-19T12:35:54.018Z,12.63
2022-12-19T12:38:16.639Z,10.48
2022-12-19T12:40:10.489Z,10.93
2022-12-19T12:42:31.233Z,9.50
2022-12-19T12:44:41.108Z,9.07
2022-12-19T12:46:51.009Z,9.50
2022-12-19T12:49:01.580Z,10.27
2022-12-19T12:51:06.203Z,10.48
2022-12-19T12:53:11.285Z,10.90
2022-12-19T12:55:19.186Z,10.52
2022-12-19T12:57:36.252Z,8.75
2022-12-19T12:59:39.174Z,8.57
2022-12-19T13:01:42.551Z,10.73
2022-12-19T13:03:55.624Z,11.18
2022-12-19T13:06:08.214Z,10.07
2022-12-19T13:08:47.417Z,11.02
2022-12-19T13:10:56.083Z,11.73
2022-12-19T13:13:01.685Z,14.25
2022-12-19T13:15:34.340Z,13.73
2022-12-19T13:18:06.805Z,14.77
2022-12-19T13:20:44.727Z,14.18
2022-12-19T13:23:03.739Z,14.63
2022-12-19T13:25:46.992Z,14.93
2022-12-19T13:27:50.459Z,16.00
2022-12-19T13:29:56.972Z,16.42
2022-12-19T13:32:14.183Z,17.65
2022-12-19T13:34:20.145Z,14.77
2022-12-19T13:39:57.353Z,14.63
2022-12-19T13:39:58.422Z,15.75
2022-12-19T13:42:34.144Z,14.95
2022-12-19T13:44:40.868Z,13.65
2022-12-19T13:46:45.569Z,16.33
2022-12-19T13:48:51.226Z,16.48
2022-12-19T13:50:55.514Z,16.83
2022-12-19T13:52:58.453Z,13.18
2022-12-19T13:55:02.564Z,13.95
2022-12-19T13:57:09.288Z,13.73
2022-12-19T13:59:12.798Z,12.43
2022-12-19T14:01:21.536Z,12.32
2022-12-19T14:03:34.433Z,11.93
2022-12-19T14:06:17.115Z,11.15
2022-12-19T14:08:05.183Z,9.90
2022-12-19T14:11:35.024Z,9.50
2022-12-19T14:13:57.463Z,8.65
2022-12-19T14:15:28.714Z,8.32
2022-12-19T14:17:31.438Z,9.38
2022-12-19T14:19:40.106Z,9.48
2022-12-19T14:22:08.755Z,9.65
2022-12-19T14:24:16.977Z,10.50
2022-12-19T14:28:20.527Z,11.35
2022-12-19T14:28:55.866Z,12.25
2022-12-19T14:31:01.629Z,10.88
2022-12-19T14:33:44.568Z,11.07
2022-12-19T14:36:09.709Z,12.07
2022-12-19T14:39:25.534Z,11.45
2022-12-19T14:40:28.042Z,13.05
2022-12-19T14:43:57.518Z,14.55
2022-12-19T14:52:34.429Z,11.45
2022-12-19T14:54:05.917Z,10.80
2022-12-19T14:54:10.512Z,10.95
2022-12-19T14:54:55.334Z,11.15
2022-12-19T14:56:16.052Z,11.10
2022-12-19T14:58:54.982Z,11.25
2022-12-19T15:00:34.959Z,8.13
2022-12-19T15:02:49.437Z,9.65
2022-12-19T15:05:04.237Z,11.02
2022-12-19T15:07:12.254Z,11.23
2022-12-19T15:10:59.425Z,13.20
2022-12-19T15:12:39.711Z,11.50
2022-12-19T15:14:56.395Z,12.75
2022-12-19T15:17:04.402Z,13.05
2022-12-19T15:19:13.387Z,10.65
2022-12-19T15:21:16.168Z,12.93
2022-12-19T15:23:22.380Z,13.00
2022-12-19T15:26:01.241Z,13.18
2022-12-19T15:27:48.318Z,11.52
2022-12-19T15:29:53.067Z,12.85
2022-12-19T15:31:55.761Z,15.25
2022-12-19T15:34:33.172Z,17.60
2022-12-19T15:36:22.123Z,19.08
2022-12-19T15:38:24.890Z,15.75
2022-12-19T15:40:27.633Z,13.27
2022-12-19T15:42:30.343Z,12.02
2022-12-19T15:44:35.374Z,12.50
2022-12-19T15:46:46.402Z,11.35
2022-12-19T15:50:53.822Z,12.80
2022-12-19T15:52:58.613Z,12.40
2022-12-19T15:55:01.316Z,13.98
2022-12-19T15:57:04.064Z,15.38
2022-12-19T15:59:13.619Z,16.40
2022-12-19T16:01:16.327Z,18.88
2022-12-19T16:03:23.560Z,14.93
2022-12-19T16:05:29.176Z,19.05
2022-12-19T16:07:32.168Z,15.02
2022-12-19T16:09:34.946Z,15.48
2022-12-19T16:11:38.920Z,13.73
2022-12-19T16:13:42.515Z,14.27
2022-12-19T16:15:45.612Z,21.38
2022-12-19T16:17:48.727Z,27.70
2022-12-19T16:19:52.774Z,17.45
2022-12-19T16:21:56.069Z,16.75
2022-12-19T16:23:58.677Z,17.38
2022-12-19T16:26:01.393Z,19.05
2022-12-19T16:28:06.999Z,19.73
2022-12-19T16:30:19.292Z,17.35
2022-12-19T16:32:24.286Z,16.10
2022-12-19T16:34:27.383Z,16.05
2022-12-19T16:36:31.659Z,17.45
2022-12-19T16:38:34.463Z,21.63
2022-12-19T16:40:37.182Z,21.42
2022-12-19T16:42:40.139Z,20.73
2022-12-19T16:44:44.253Z,17.75
2022-12-19T16:46:50.963Z,14.30
2022-12-19T16:48:54.190Z,18.33
2022-12-19T16:50:57.879Z,23.35
2022-12-19T16:53:01.907Z,16.23
2022-12-19T16:55:04.854Z,15.80
2022-12-19T16:57:16.763Z,18.80
2022-12-19T16:59:22.953Z,14.65
2022-12-19T17:01:25.723Z,14.63
2022-12-19T17:03:33.493Z,21.42
2022-12-19T17:05:36.417Z,18.92
2022-12-19T17:07:39.180Z,20.33
2022-12-19T17:09:43.190Z,12.55
2022-12-19T17:11:48.963Z,19.13
2022-12-19T17:13:54.647Z,22.60
2022-12-19T17:15:59.385Z,16.75
2022-12-19T17:18:05.476Z,13.85
2022-12-19T17:20:17.428Z,14.18
2022-12-19T17:22:21.363Z,15.48
2022-12-19T17:24:24.393Z,14.00
2022-12-19T17:26:28.522Z,14.35
2022-12-19T17:28:31.147Z,14.63
2022-12-19T17:30:34.960Z,12.85
2022-12-19T17:32:37.744Z,12.00
2022-12-19T17:34:40.496Z,12.55
2022-12-19T17:36:43.138Z,13.02
2022-12-19T17:38:46.287Z,13.60
2022-12-19T17:40:49.031Z,14.50
2022-12-19T17:42:53.430Z,12.85
2022-12-19T17:44:56.225Z,12.52
2022-12-19T17:46:59.670Z,11.80
2022-12-19T17:49:02.384Z,13.13
2022-12-19T17:51:05.217Z,11.80
2022-12-19T17:53:14.128Z,11.82
2022-12-19T17:55:20.112Z,9.75
2022-12-19T17:57:22.815Z,8.93
2022-12-19T17:59:26.807Z,9.63
2022-12-19T18:01:30.400Z,9.70
2022-12-19T18:03:33.372Z,11.02
2022-12-19T18:05:37.300Z,14.43
2022-12-19T18:07:40.943Z,11.43
2022-12-19T18:09:44.318Z,12.75
2022-12-19T18:11:47.275Z,11.18
2022-12-19T18:13:50.036Z,12.43
2022-12-19T18:15:56.813Z,16.48
2022-12-19T18:18:00.029Z,17.30
2022-12-19T18:20:03.279Z,13.07
2022-12-19T18:22:07.824Z,15.27
2022-12-19T18:24:12.107Z,14.70
2022-12-19T18:26:15.574Z,12.05
2022-12-19T18:28:18.386Z,16.27
2022-12-19T18:30:23.297Z,15.10
2022-12-19T18:32:27.443Z,14.10
2022-12-19T18:34:32.348Z,10.80
2022-12-19T18:36:40.020Z,12.93
2022-12-19T18:38:42.698Z,12.57
2022-12-19T18:40:45.815Z,12.43
2022-12-19T18:42:48.929Z,13.65
2022-12-19T18:44:51.789Z,14.13
2022-12-19T18:46:54.483Z,17.98
2022-12-19T18:48:58.971Z,15.35
2022-12-19T18:51:02.194Z,15.00
2022-12-19T18:53:11.670Z,14.48
2022-12-19T18:55:17.760Z,13.95
2022-12-19T18:57:20.389Z,15.13
2022-12-19T18:59:23.140Z,14.48
2022-12-19T19:01:26.980Z,12.68
2022-12-19T19:03:32.402Z,17.23
2022-12-19T19:05:40.448Z,14.48
2022-12-19T19:07:43.147Z,14.15
2022-12-19T19:09:45.811Z,13.93
2022-12-19T19:11:48.557Z,14.57
2022-12-19T19:13:51.459Z,18.73
2022-12-19T19:15:56.461Z,16.98
2022-12-19T19:18:00.993Z,16.05
2022-12-19T19:20:04.427Z,14.10
2022-12-19T19:22:08.592Z,14.48
2022-12-19T19:24:14.604Z,12.55
2022-12-19T19:26:17.325Z,12.15
2022-12-19T19:28:20.071Z,11.70
2022-12-19T19:30:23.542Z,11.60
2022-12-19T19:32:26.863Z,12.10
2022-12-19T19:34:33.050Z,12.77
2022-12-19T19:36:39.512Z,13.10
2022-12-19T19:38:46.634Z,11.98
2022-12-19T19:40:49.315Z,13.00
2022-12-19T19:42:52.151Z,12.43
2022-12-19T19:44:54.801Z,14.70
2022-12-19T19:46:57.528Z,12.63
2022-12-19T19:49:00.293Z,12.15
2022-12-19T19:51:02.984Z,11.48
2022-12-19T19:53:05.969Z,11.73
2022-12-19T19:55:10.918Z,10.60
2022-12-19T19:57:13.568Z,10.88
2022-12-19T19:59:16.264Z,12.07
2022-12-19T20:01:19.149Z,12.07
2022-12-19T20:03:23.447Z,10.57
2022-12-19T20:05:26.503Z,10.50
2022-12-19T20:07:29.209Z,9.75
2022-12-19T20:09:32.339Z,13.23
2022-12-19T20:11:36.383Z,9.80
2022-12-19T20:13:39.367Z,9.30
2022-12-19T20:15:49.331Z,9.20
2022-12-19T20:17:52.930Z,7.90
2022-12-19T20:19:55.569Z,8.93
2022-12-19T20:22:00.115Z,9.05
2022-12-19T20:24:02.993Z,8.65
2022-12-19T20:26:06.810Z,9.93
2022-12-19T20:28:11.007Z,9.77
2022-12-19T20:30:14.428Z,9.50
2022-12-19T20:32:17.215Z,9.88
2022-12-19T20:34:20.838Z,9.85
2022-12-19T20:36:25.034Z,10.27
2022-12-19T20:38:28.753Z,9.88
2022-12-19T20:40:31.503Z,8.70
2022-12-19T20:42:34.176Z,9.73
2022-12-19T20:44:38.259Z,9.48
2022-12-19T20:46:41.065Z,9.00
2022-12-19T20:48:44.748Z,9.27
2022-12-19T20:50:47.447Z,10.15
2022-12-19T20:52:50.130Z,9.27
2022-12-19T20:54:52.753Z,11.75
2022-12-19T20:56:55.414Z,11.40
2022-12-19T20:58:58.605Z,9.98
2022-12-19T21:01:07.286Z,10.60
2022-12-19T21:05:32.646Z,9.27
2022-12-19T21:07:35.393Z,8.68
2022-12-19T21:09:38.603Z,10.48
2022-12-19T21:11:41.264Z,10.85
2022-12-19T21:13:44.326Z,10.80
2022-12-19T21:15:47.605Z,10.40
2022-12-19T21:17:51.647Z,11.02
2022-12-19T21:19:54.327Z,10.75
2022-12-19T21:21:57.086Z,10.50
2022-12-19T21:24:02.132Z,11.05
2022-12-19T21:26:05.765Z,9.80
2022-12-19T21:28:09.436Z,10.52
2022-12-19T21:30:12.629Z,10.90
2022-12-19T21:32:19.054Z,11.15
2022-12-19T21:34:23.659Z,10.25
2022-12-19T21:36:28.277Z,11.40
2022-12-19T21:38:30.917Z,8.88
2022-12-19T21:40:33.652Z,9.85
2022-12-19T21:42:36.251Z,10.15
2022-12-19T21:44:38.852Z,9.73
2022-12-19T21:46:41.534Z,10.13
2022-12-19T21:48:46.543Z,10.68
2022-12-19T21:50:57.412Z,10.63
2022-12-19T21:53:00.320Z,8.02
2022-12-19T21:55:03.069Z,9.73
2022-12-19T21:57:05.720Z,9.13
2022-12-19T21:59:11.771Z,9.52
2022-12-19T22:01:15.699Z,12.50
2022-12-19T22:03:18.589Z,14.13
2022-12-19T22:05:21.486Z,13.88
2022-12-19T22:07:25.568Z,12.55
2022-12-19T22:09:28.397Z,12.40
2022-12-19T22:11:31.357Z,12.57
2022-12-19T22:13:34.125Z,10.63
2022-12-19T22:15:37.185Z,11.82
2022-12-19T22:17:39.850Z,11.68
2022-12-19T22:19:42.604Z,11.23
2022-12-19T22:21:46.462Z,10.93
2022-12-19T22:23:50.645Z,9.90
2022-12-19T22:26:01.210Z,10.48
2022-12-19T22:28:04.033Z,10.07
2022-12-19T22:30:11.122Z,10.10
2022-12-19T22:32:14.111Z,10.32
2022-12-19T22:34:18.343Z,10.70
2022-12-19T22:36:27.969Z,9.40
2022-12-19T22:38:31.146Z,8.80
2022-12-19T22:40:35.281Z,8.40
2022-12-19T22:42:37.961Z,9.98
2022-12-19T22:44:40.685Z,8.93
2022-12-19T22:46:43.556Z,9.70
2022-12-19T22:48:47.496Z,9.20
2022-12-19T22:50:50.188Z,9.32
2022-12-19T22:52:52.929Z,8.60
2022-12-19T22:54:55.545Z,8.68
2022-12-19T22:56:59.577Z,9.10
2022-12-19T22:59:04.781Z,9.52
2022-12-19T23:01:15.753Z,9.35
2022-12-19T23:03:18.636Z,9.48
2022-12-19T23:05:21.469Z,8.70
2022-12-19T23:07:24.151Z,9.95
2022-12-19T23:09:27.636Z,8.70
2022-12-19T23:11:33.402Z,9.57
2022-12-19T23:13:37.544Z,8.40
2022-12-19T23:15:40.204Z,9.65
2022-12-19T23:17:42.832Z,9.63
2022-12-19T23:19:45.502Z,9.70
2022-12-19T23:21:48.341Z,10.70
2022-12-19T23:23:52.813Z,8.68
2022-12-19T23:25:55.510Z,8.73
2022-12-19T23:27:58.248Z,7.47
2022-12-19T23:30:02.262Z,8.48
2022-12-19T23:32:05.333Z,7.45
2022-12-19T23:34:08.193Z,8.80
2022-12-19T23:36:11.260Z,8.95
2022-12-19T23:38:13.932Z,9.10
2022-12-19T23:40:17.310Z,9.88
2022-12-19T23:42:20.369Z,9.35
2022-12-19T23:44:23.349Z,9.75
2022-12-19T23:46:28.116Z,8.65
2022-12-19T23:48:30.908Z,10.65
2022-12-19T23:50:33.722Z,10.68
2022-12-19T23:52:36.388Z,8.35
2022-12-19T23:54:39.096Z,10.57
2022-12-19T23:56:41.774Z,11.25
2022-12-19T23:58:45.792Z,11.80
